aviador You're here:

RKSI Decoded Metar

CHAJANG NI in KOREA
Report Time2017-05-26 12:30:00
UTC Time2017-05-26 13:01:47
Flight Rules vfr VFR
Wind280° at 09 kt
W.Decomp.*RWY 33: 6.7 kt HW 6 kt LCW
RWY 34: 5.5 kt HW 7.1 kt LCW
W.Rank280° ranks 16
Current wind is above 280° avg. (8.4)
Visibility9999 m
Phenomena:N/A
Clouds:N/A
Expected CloudBase > 2,400 ft AGL from Temp-Dew spread
CeilingNone
Temp17°C (ISA +2)
Dew Point11°C (68% RH)
AAT14.1°C
QNH1009 hPa
Density Alt577 ft
Elevation23 ft
Report Wrong Elevation
Raw Report
RKSI 261230Z 28009KT CAVOK 17/11 Q1009 NOSIG=

Extra information for RKSI:More info

Metar Taf Metar & Taf Last 4 Metars F.Rules Stats Wind Profile Meteogram Temp Stats Airport Information Weather charts Add Link Nearby VenuesMetar ALERT Operation Metar Decoded Social comments